KHRO/HRO METAR and TAF weather

Enter ICAO airport designator
Station Type Date Time Source
KHRO METAR 2020/10/22 02:53 UTC NOAA

KHRO 220253Z AUTO 17005KT 10SM CLR 18/16 A3006 RMK AO2 SLP172 T01830161 51005


Station Type Date Time Source
KHRO Decoded METAR 2020/10/22 02:53 UTC NOAA

HARRISON BOONE COUNTY AIRPORT , AR, United States (KHRO) 36-16N 093-09W 417M
Oct 21, 2020 - 10:53 PM EDT / 2020.10.22 0253 UTC
Wind: from the S (170 degrees) at 6 MPH (5 KT):0
Visibility: 10 mile(s):0
Sky conditions: clear
Temperature: 64.9 F (18.3 C)
Dew Point: 61.0 F (16.1 C)
Relative Humidity: 86%
Pressure (altimeter): 30.06 in. Hg (1017 hPa)
Pressure tendency: 0.01 inches (0.5 hPa) higher than three hours ago
ob: KHRO 220253Z AUTO 17005KT 10SM CLR 18/16 A3006 RMK AO2 SLP172 T01830161 51005
cycle: 3

Station Type Date Time Source
KHRO TAF 2020/10/21 18:22 UTC NOAA

TAF KHRO 211720Z 2118/2218 16008G15KT P6SM SCT050
FM220200 14005KT P6SM VCFG SKC
TEMPO 2206/2210 3SM BR
FM221000 VRB03KT 4SM BR FEW002
TEMPO 2210/2214 3/4SM BR BKN002
FM221500 16008G15KT P6SM SKC

Example: see airport list